createdAt,value
2019-04-28T00:01:13.538Z,5.47
2019-04-28T00:03:42.064Z,6.33
2019-04-28T00:06:11.064Z,8.17
2019-04-28T00:08:39.743Z,7.00
2019-04-28T00:11:08.140Z,7.63
2019-04-28T00:13:36.686Z,7.40
2019-04-28T00:16:07.481Z,4.60
2019-04-28T00:18:35.966Z,5.07
2019-04-28T00:21:17.573Z,7.07
2019-04-28T00:24:04.608Z,6.40
2019-04-28T00:26:41.066Z,5.73
2019-04-28T00:29:11.133Z,3.90
2019-04-28T00:31:41.417Z,3.87
2019-04-28T00:34:11.438Z,8.23
2019-04-28T00:36:42.990Z,8.60
2019-04-28T00:39:11.793Z,6.17
2019-04-28T00:41:41.971Z,5.93
2019-04-28T00:44:12.104Z,4.10
2019-04-28T00:46:41.738Z,7.00
2019-04-28T00:49:11.836Z,8.87
2019-04-28T00:51:41.506Z,10.27
2019-04-28T00:54:12.061Z,4.73
2019-04-28T00:56:41.841Z,7.73
2019-04-28T00:59:11.804Z,6.03
2019-04-28T01:01:52.921Z,8.93
2019-04-28T01:04:21.904Z,3.03
2019-04-28T01:06:52.023Z,7.27
2019-04-28T01:09:21.836Z,8.47
2019-04-28T01:11:51.085Z,6.77
2019-04-28T01:14:21.360Z,5.97
2019-04-28T01:17:05.533Z,6.70
2019-04-28T01:19:36.818Z,7.13
2019-04-28T01:22:12.025Z,7.53
2019-04-28T01:24:40.890Z,5.87
2019-04-28T01:27:27.788Z,7.10
2019-04-28T01:30:07.621Z,6.87
2019-04-28T01:32:33.760Z,6.27
2019-04-28T01:35:02.293Z,4.53
2019-04-28T01:37:30.783Z,5.67
2019-04-28T01:39:59.719Z,9.97
2019-04-28T01:42:30.129Z,6.43
2019-04-28T01:45:00.665Z,7.43
2019-04-28T01:47:30.512Z,5.20
2019-04-28T01:50:01.741Z,6.97
2019-04-28T01:52:30.271Z,5.73
2019-04-28T01:55:00.468Z,5.67
2019-04-28T01:57:29.984Z,4.93
2019-04-28T01:59:59.939Z,6.30
2019-04-28T02:02:30.097Z,3.70
2019-04-28T02:04:59.874Z,5.27
2019-04-28T02:07:30.687Z,5.83
2019-04-28T02:10:00.712Z,3.87
2019-04-28T02:12:30.425Z,8.73
2019-04-28T02:15:01.055Z,3.80
2019-04-28T02:17:30.432Z,7.50
2019-04-28T02:20:00.638Z,4.63
2019-04-28T02:22:50.728Z,4.97
2019-04-28T02:25:19.555Z,7.60
2019-04-28T02:27:49.915Z,7.70
2019-04-28T02:30:22.608Z,9.13
2019-04-28T02:32:51.627Z,10.17
2019-04-28T02:35:21.178Z,5.50
2019-04-28T02:37:50.534Z,10.83
2019-04-28T02:40:20.690Z,6.23
2019-04-28T02:42:51.925Z,10.50
2019-04-28T02:45:21.714Z,12.97
2019-04-28T02:47:52.446Z,9.00
2019-04-28T02:50:30.472Z,13.87
2019-04-28T02:53:03.414Z,9.73
2019-04-28T02:55:32.420Z,14.83
2019-04-28T02:58:01.591Z,10.67
2019-04-28T03:00:31.782Z,8.33
2019-04-28T03:03:01.588Z,6.50
2019-04-28T03:05:30.272Z,6.73
2019-04-28T03:08:01.169Z,6.40
2019-04-28T03:10:31.137Z,4.87
2019-04-28T03:13:01.089Z,10.20
2019-04-28T03:15:31.028Z,5.27
2019-04-28T03:18:01.817Z,11.03
2019-04-28T03:20:30.721Z,8.93
2019-04-28T03:23:00.877Z,11.57
2019-04-28T03:25:50.638Z,12.60
2019-04-28T03:28:53.474Z,16.67
2019-04-28T03:32:08.031Z,11.37
2019-04-28T03:34:12.537Z,12.77
2019-04-28T03:36:40.835Z,16.30
2019-04-28T03:39:11.165Z,14.60
2019-04-28T03:41:40.658Z,17.17
2019-04-28T03:44:11.490Z,15.70
2019-04-28T03:46:45.623Z,22.23
2019-04-28T03:49:31.086Z,19.40
2019-04-28T03:52:00.753Z,10.20
2019-04-28T03:54:30.362Z,15.83
2019-04-28T03:57:01.335Z,17.53
2019-04-28T03:59:31.174Z,15.53
2019-04-28T04:02:03.059Z,15.30
2019-04-28T04:04:32.252Z,20.90
2019-04-28T04:07:01.463Z,21.60
2019-04-28T04:10:00.761Z,15.43
2019-04-28T04:12:46.702Z,15.73
2019-04-28T04:15:49.221Z,22.30
2019-04-28T04:18:21.029Z,20.10
2019-04-28T04:20:51.217Z,16.70
2019-04-28T04:23:22.757Z,18.60
2019-04-28T04:25:51.268Z,23.00
2019-04-28T04:28:20.521Z,19.20
2019-04-28T04:30:50.850Z,13.90
2019-04-28T04:33:20.807Z,19.53
2019-04-28T04:35:51.690Z,15.77
2019-04-28T04:38:21.763Z,19.60
2019-04-28T04:40:51.251Z,15.97
2019-04-28T04:43:23.022Z,20.97
2019-04-28T04:45:54.315Z,19.73
2019-04-28T04:48:22.764Z,18.47
2019-04-28T04:50:51.203Z,20.27
2019-04-28T04:53:20.768Z,18.67
2019-04-28T04:55:50.519Z,16.73
2019-04-28T04:58:21.433Z,17.50
2019-04-28T05:01:00.813Z,15.00
2019-04-28T05:03:32.121Z,15.13
2019-04-28T05:06:00.666Z,20.00
2019-04-28T05:08:30.158Z,26.23
2019-04-28T05:11:00.015Z,13.87
2019-04-28T05:13:30.016Z,17.07
2019-04-28T05:15:59.841Z,14.27
2019-04-28T05:18:29.751Z,16.23
2019-04-28T05:20:59.465Z,13.70
2019-04-28T05:23:47.516Z,13.30
2019-04-28T05:26:16.033Z,14.27
2019-04-28T05:28:51.530Z,18.67
2019-04-28T05:31:20.655Z,14.47
2019-04-28T05:33:45.018Z,16.43
2019-04-28T05:36:13.441Z,15.70
2019-04-28T05:38:42.840Z,14.80
2019-04-28T05:41:11.280Z,13.87
2019-04-28T05:43:40.416Z,14.93
2019-04-28T05:46:10.603Z,12.90
2019-04-28T05:48:45.669Z,14.33
2019-04-28T05:51:16.556Z,15.10
2019-04-28T05:53:52.271Z,16.17
2019-04-28T05:56:42.686Z,14.80
2019-04-28T05:59:22.027Z,13.97
2019-04-28T06:02:02.803Z,16.67
2019-04-28T06:04:31.252Z,14.20
2019-04-28T06:07:05.975Z,10.77
2019-04-28T06:09:41.295Z,11.33
2019-04-28T06:12:11.673Z,18.20
2019-04-28T06:14:40.344Z,14.63
2019-04-28T06:17:10.875Z,11.80
2019-04-28T06:19:40.301Z,12.60
2019-04-28T06:22:08.933Z,14.90
2019-04-28T06:24:37.366Z,13.37
2019-04-28T06:27:05.771Z,10.53
2019-04-28T06:29:34.181Z,11.47
2019-04-28T06:32:02.619Z,12.50
2019-04-28T06:34:31.031Z,14.20
2019-04-28T06:36:59.446Z,15.47
2019-04-28T06:39:27.856Z,10.50
2019-04-28T06:41:56.293Z,14.53
2019-04-28T06:44:24.766Z,9.50
2019-04-28T06:46:53.345Z,10.40
2019-04-28T06:49:21.956Z,11.83
2019-04-28T06:51:50.803Z,12.97
2019-04-28T06:54:19.219Z,15.23
2019-04-28T06:56:47.630Z,11.97
2019-04-28T06:59:16.072Z,14.67
2019-04-28T07:01:44.688Z,11.10
2019-04-28T07:04:13.106Z,13.43
2019-04-28T07:06:41.548Z,14.20
2019-04-28T07:09:10.064Z,13.13
2019-04-28T07:11:38.423Z,20.23
2019-04-28T07:14:06.873Z,19.67
2019-04-28T07:16:35.295Z,15.80
2019-04-28T07:19:03.836Z,12.60
2019-04-28T07:21:57.788Z,11.60
2019-04-28T07:24:26.238Z,14.43
2019-04-28T07:26:55.130Z,14.93
2019-04-28T07:29:23.581Z,11.43
2019-04-28T07:31:52.008Z,12.87
2019-04-28T07:34:20.430Z,12.13
2019-04-28T07:36:48.926Z,13.67
2019-04-28T07:39:17.384Z,14.13
2019-04-28T07:41:45.846Z,14.93
2019-04-28T07:44:14.334Z,17.90
2019-04-28T07:46:42.758Z,10.60
2019-04-28T07:49:11.920Z,15.93
2019-04-28T07:52:11.923Z,15.93
2019-04-28T07:54:40.343Z,15.83
2019-04-28T07:57:08.761Z,15.10
2019-04-28T07:59:37.193Z,12.07
2019-04-28T08:02:05.741Z,9.33
2019-04-28T08:04:34.473Z,7.30
2019-04-28T08:07:02.833Z,11.57
2019-04-28T08:09:31.318Z,8.80
2019-04-28T08:11:59.726Z,11.27
2019-04-28T08:14:28.231Z,13.43
2019-04-28T08:16:56.625Z,12.23
2019-04-28T08:19:25.136Z,11.07
2019-04-28T08:21:53.726Z,11.50
2019-04-28T08:24:22.832Z,9.57
2019-04-28T08:26:51.263Z,13.60
2019-04-28T08:29:19.738Z,9.57
2019-04-28T08:32:01.534Z,9.23
2019-04-28T08:34:32.321Z,9.47
2019-04-28T08:37:00.733Z,12.33
2019-04-28T08:39:41.386Z,11.03
2019-04-28T08:42:10.454Z,10.73
2019-04-28T08:44:38.946Z,9.73
2019-04-28T08:47:07.427Z,11.27
2019-04-28T08:49:35.932Z,9.07
2019-04-28T08:52:04.333Z,12.37
2019-04-28T08:54:32.917Z,10.00
2019-04-28T08:57:01.695Z,10.50
2019-04-28T08:59:30.089Z,9.93
2019-04-28T09:01:58.532Z,12.00
2019-04-28T09:04:26.983Z,9.83
2019-04-28T09:06:55.426Z,12.03
2019-04-28T09:09:24.510Z,8.37
2019-04-28T09:11:53.023Z,10.10
2019-04-28T09:14:21.818Z,10.77
2019-04-28T09:16:50.374Z,11.30
2019-04-28T09:19:19.896Z,10.53
2019-04-28T09:21:48.426Z,12.73
2019-04-28T09:24:16.905Z,10.13
2019-04-28T09:26:45.358Z,10.70
2019-04-28T09:29:15.594Z,8.13
2019-04-28T09:31:44.226Z,8.10
2019-04-28T09:34:12.651Z,7.97
2019-04-28T09:36:41.066Z,7.57
2019-04-28T09:39:11.366Z,8.60
2019-04-28T09:41:43.625Z,8.73
2019-04-28T09:44:16.065Z,11.83
2019-04-28T09:46:47.362Z,9.93
2019-04-28T09:49:15.803Z,8.40
2019-04-28T09:51:44.263Z,9.63
2019-04-28T09:54:12.856Z,9.33
2019-04-28T09:56:41.370Z,7.90
2019-04-28T09:59:09.794Z,11.33
2019-04-28T10:01:38.207Z,11.30
2019-04-28T10:04:07.480Z,10.97
2019-04-28T10:06:35.913Z,9.53
2019-04-28T10:09:06.306Z,12.23
2019-04-28T10:11:34.943Z,10.70
2019-04-28T10:14:03.626Z,10.93
2019-04-28T10:16:33.286Z,10.53
2019-04-28T10:19:01.795Z,9.77
2019-04-28T10:21:30.223Z,7.50
2019-04-28T10:23:58.668Z,7.07
2019-04-28T10:26:27.308Z,10.72
2019-04-28T10:28:56.733Z,8.47
2019-04-28T10:31:25.176Z,10.20
2019-04-28T10:33:57.726Z,17.15
2019-04-28T10:36:27.918Z,13.90
2019-04-28T10:39:15.850Z,9.10
2019-04-28T10:41:44.338Z,9.23
2019-04-28T10:44:12.753Z,9.30
2019-04-28T10:46:41.214Z,9.47
2019-04-28T10:49:09.628Z,11.10
2019-04-28T10:51:38.078Z,6.93
2019-04-28T10:54:06.565Z,10.13
2019-04-28T10:56:35.109Z,10.97
2019-04-28T10:59:03.726Z,14.30
2019-04-28T11:01:32.293Z,14.07
2019-04-28T11:04:04.165Z,9.17
2019-04-28T11:06:32.706Z,6.83
2019-04-28T11:09:13.623Z,12.73
2019-04-28T11:11:42.191Z,9.30
2019-04-28T11:14:10.760Z,12.50
2019-04-28T11:16:39.638Z,10.37
2019-04-28T11:19:09.323Z,9.50
2019-04-28T11:21:37.868Z,7.27
2019-04-28T11:24:06.619Z,7.77
2019-04-28T11:26:35.123Z,8.33
2019-04-28T11:29:04.237Z,10.63
2019-04-28T11:31:32.874Z,10.83
2019-04-28T11:34:13.003Z,10.97
2019-04-28T11:36:41.444Z,12.00
2019-04-28T11:39:12.571Z,9.53
2019-04-28T11:41:45.213Z,15.00
2019-04-28T11:44:13.797Z,12.73
2019-04-28T11:46:43.278Z,7.57
2019-04-28T11:49:11.705Z,10.90
2019-04-28T11:51:40.364Z,10.70
2019-04-28T11:54:08.817Z,8.50
2019-04-28T11:56:41.517Z,10.80
2019-04-28T11:59:07.841Z,6.90
2019-04-28T12:01:38.794Z,10.07
2019-04-28T12:04:09.705Z,9.23
2019-04-28T12:06:39.325Z,8.80
2019-04-28T12:09:32.970Z,6.70
2019-04-28T12:12:08.625Z,11.50
2019-04-28T12:14:55.005Z,7.63
2019-04-28T12:17:45.790Z,11.00
2019-04-28T12:20:18.854Z,6.83
2019-04-28T12:22:47.336Z,5.50
2019-04-28T12:25:15.773Z,5.97
2019-04-28T12:27:45.639Z,7.20
2019-04-28T12:30:14.193Z,6.03
2019-04-28T12:32:42.824Z,5.20
2019-04-28T12:35:11.564Z,7.40
2019-04-28T12:37:39.961Z,6.03
2019-04-28T12:40:10.249Z,5.30
2019-04-28T12:42:39.374Z,5.70
2019-04-28T12:45:07.939Z,5.23
2019-04-28T12:47:36.421Z,8.07
2019-04-28T12:50:14.298Z,4.27
2019-04-28T12:52:43.271Z,5.63
2019-04-28T12:55:13.955Z,7.73
2019-04-28T12:57:42.481Z,12.87
2019-04-28T13:00:45.980Z,8.77
2019-04-28T13:03:36.663Z,8.97
2019-04-28T13:06:07.981Z,8.67
2019-04-28T13:08:36.448Z,9.80
2019-04-28T13:11:04.948Z,7.53
2019-04-28T13:13:33.424Z,7.47
2019-04-28T13:16:02.663Z,9.63
2019-04-28T13:18:31.174Z,8.90
2019-04-28T13:20:59.995Z,5.87
2019-04-28T13:23:28.484Z,9.27
2019-04-28T13:25:57.853Z,6.23
2019-04-28T13:28:26.296Z,9.60
2019-04-28T13:30:54.911Z,9.90
2019-04-28T13:33:23.373Z,8.00
2019-04-28T13:35:51.817Z,6.80
2019-04-28T13:38:20.383Z,10.53
2019-04-28T13:40:49.163Z,9.47
2019-04-28T13:43:18.740Z,11.50
2019-04-28T13:45:47.218Z,7.70
2019-04-28T13:48:16.021Z,12.40
2019-04-28T13:50:48.972Z,8.90
2019-04-28T13:53:17.060Z,11.27
2019-04-28T13:55:59.231Z,10.87
2019-04-28T13:58:32.118Z,7.57
2019-04-28T14:01:14.022Z,9.50
2019-04-28T14:04:04.472Z,6.50
2019-04-28T14:06:41.237Z,10.17
2019-04-28T14:09:15.701Z,7.60
2019-04-28T14:11:48.959Z,7.97
2019-04-28T14:14:17.458Z,8.57
2019-04-28T14:16:45.938Z,7.63
2019-04-28T14:19:15.569Z,6.92
2019-04-28T14:21:44.158Z,8.17
2019-04-28T14:24:12.610Z,4.55
2019-04-28T14:26:41.618Z,9.65
2019-04-28T14:29:12.474Z,9.33
2019-04-28T14:31:41.846Z,8.67
2019-04-28T14:34:10.355Z,7.43
2019-04-28T14:36:42.325Z,12.43
2019-04-28T14:39:09.778Z,6.57
2019-04-28T14:41:41.058Z,10.30
2019-04-28T14:44:09.567Z,5.87
2019-04-28T14:46:38.041Z,9.93
2019-04-28T14:49:06.471Z,10.23
2019-04-28T14:51:36.103Z,10.20
2019-04-28T14:54:04.567Z,7.80
2019-04-28T14:56:33.102Z,8.70
2019-04-28T14:59:03.977Z,9.63
2019-04-28T15:02:00.465Z,7.30
2019-04-28T15:04:48.486Z,12.30
2019-04-28T15:07:36.389Z,8.23
2019-04-28T15:10:17.095Z,7.87
2019-04-28T15:12:45.547Z,5.30
2019-04-28T15:15:19.870Z,7.87
2019-04-28T15:17:48.527Z,7.07
2019-04-28T15:20:17.035Z,6.17
2019-04-28T15:22:46.238Z,10.43
2019-04-28T15:25:15.035Z,10.23
2019-04-28T15:27:43.518Z,6.70
2019-04-28T15:30:13.244Z,7.03
2019-04-28T15:32:41.978Z,6.80
2019-04-28T15:35:10.571Z,6.20
2019-04-28T15:37:39.171Z,6.83
2019-04-28T15:40:09.862Z,8.80
2019-04-28T15:42:38.785Z,9.60
2019-04-28T15:45:07.961Z,9.70
2019-04-28T15:47:37.968Z,7.23
2019-04-28T15:50:25.253Z,8.77
2019-04-28T15:52:54.931Z,16.90
2019-04-28T15:55:30.109Z,14.43
2019-04-28T15:58:20.226Z,12.37
2019-04-28T16:00:49.691Z,10.60
2019-04-28T16:03:19.287Z,16.07
2019-04-28T16:05:48.986Z,11.13
2019-04-28T16:08:17.811Z,7.70
2019-04-28T16:10:46.249Z,6.83
2019-04-28T16:13:14.816Z,3.63
2019-04-28T16:15:44.334Z,4.40
2019-04-28T16:18:12.810Z,4.40
2019-04-28T16:20:42.303Z,12.53
2019-04-28T16:23:12.085Z,6.90
2019-04-28T16:25:40.591Z,4.37
2019-04-28T16:28:09.956Z,4.47
2019-04-28T16:30:38.474Z,4.00
2019-04-28T16:33:06.973Z,3.40
2019-04-28T16:35:35.471Z,3.10
2019-04-28T16:38:04.446Z,4.03
2019-04-28T16:40:33.017Z,2.87
2019-04-28T16:43:21.281Z,3.37
2019-04-28T16:45:49.794Z,2.70
2019-04-28T16:48:18.248Z,3.53
2019-04-28T16:50:47.187Z,1.90
2019-04-28T16:53:17.621Z,2.30
2019-04-28T16:56:04.284Z,2.47
2019-04-28T16:58:50.669Z,1.50
2019-04-28T17:01:41.176Z,6.40
2019-04-28T17:04:09.816Z,1.37
2019-04-28T17:06:38.380Z,2.40
2019-04-28T17:09:07.256Z,2.13
2019-04-28T17:11:40.008Z,3.10
2019-04-28T17:14:08.570Z,5.93
2019-04-28T17:16:37.623Z,2.77
2019-04-28T17:19:08.570Z,2.30
2019-04-28T17:21:37.133Z,7.60
2019-04-28T17:24:05.739Z,2.63
2019-04-28T17:26:36.054Z,1.47
2019-04-28T17:29:06.564Z,3.43
2019-04-28T17:31:35.159Z,1.40
2019-04-28T17:34:06.081Z,2.03
2019-04-28T17:36:35.064Z,2.33
2019-04-28T17:39:08.829Z,1.90
2019-04-28T17:41:39.204Z,4.23
2019-04-28T17:44:07.769Z,2.50
2019-04-28T17:46:39.484Z,3.43
2019-04-28T17:49:08.018Z,3.10
2019-04-28T17:51:37.914Z,2.17
2019-04-28T17:54:06.661Z,2.23
2019-04-28T17:56:35.158Z,2.77
2019-04-28T17:59:04.546Z,2.13
2019-04-28T18:02:01.333Z,1.63
2019-04-28T18:04:48.318Z,5.30
2019-04-28T18:07:24.563Z,1.97
2019-04-28T18:09:53.034Z,2.87
2019-04-28T18:12:40.510Z,3.93
2019-04-28T18:15:27.316Z,4.93
2019-04-28T18:18:20.080Z,3.27
2019-04-28T18:20:48.556Z,2.87
2019-04-28T18:23:17.066Z,8.23
2019-04-28T18:25:45.671Z,5.50
2019-04-28T18:28:14.125Z,2.47
2019-04-28T18:30:50.370Z,2.87
2019-04-28T18:33:40.733Z,5.17
2019-04-28T18:36:18.691Z,18.30
2019-04-28T18:38:56.640Z,19.90
2019-04-28T18:41:53.003Z,11.17
2019-04-28T18:44:21.745Z,4.00
2019-04-28T18:46:50.208Z,5.97
2019-04-28T18:49:18.736Z,4.90
2019-04-28T18:51:47.175Z,4.00
2019-04-28T18:54:15.639Z,4.00
2019-04-28T18:56:44.795Z,6.80
2019-04-28T18:59:14.590Z,5.90
2019-04-28T19:01:52.465Z,4.27
2019-04-28T19:04:22.013Z,2.10
2019-04-28T19:07:04.152Z,2.93
2019-04-28T19:09:55.393Z,2.90
2019-04-28T19:12:58.351Z,2.23
2019-04-28T19:15:59.105Z,2.63
2019-04-28T19:18:32.795Z,1.37
2019-04-28T19:21:01.794Z,1.73
2019-04-28T19:23:32.902Z,4.70
2019-04-28T19:26:02.426Z,8.90
2019-04-28T19:28:31.399Z,3.10
2019-04-28T19:31:00.485Z,3.40
2019-04-28T19:33:29.115Z,3.90
2019-04-28T19:35:57.607Z,4.23
2019-04-28T19:38:26.232Z,2.40
2019-04-28T19:40:54.834Z,2.77
2019-04-28T19:43:23.358Z,6.30
2019-04-28T19:45:53.727Z,2.53
2019-04-28T19:48:23.343Z,2.83
2019-04-28T19:50:54.025Z,2.53
2019-04-28T19:53:22.856Z,1.87
2019-04-28T19:55:58.426Z,2.20
2019-04-28T19:58:58.408Z,1.30
2019-04-28T20:01:28.868Z,2.00
2019-04-28T20:03:57.404Z,3.87
2019-04-28T20:06:25.956Z,1.50
2019-04-28T20:08:57.122Z,3.40
2019-04-28T20:11:25.639Z,4.03
2019-04-28T20:16:43.228Z,5.60
2019-04-28T20:19:12.167Z,5.93
2019-04-28T20:21:43.246Z,3.83
2019-04-28T20:24:11.844Z,3.07
2019-04-28T20:26:41.405Z,2.83
2019-04-28T20:29:11.872Z,4.80
2019-04-28T20:31:41.792Z,2.87
2019-04-28T20:34:10.379Z,2.87
2019-04-28T20:37:03.366Z,3.60
2019-04-28T20:39:37.357Z,3.37
2019-04-28T20:42:24.081Z,2.90
2019-04-28T20:44:53.162Z,5.30
2019-04-28T20:47:23.088Z,6.37
2019-04-28T20:49:53.751Z,5.00
2019-04-28T20:55:09.267Z,7.80
2019-04-28T20:57:37.818Z,7.37
2019-04-28T21:00:06.936Z,5.40
2019-04-28T21:02:37.401Z,6.03
2019-04-28T21:05:06.392Z,5.03
2019-04-28T21:07:34.906Z,6.73
2019-04-28T21:10:03.718Z,4.77
2019-04-28T21:12:32.523Z,4.23
2019-04-28T21:15:01.434Z,3.90
2019-04-28T21:17:30.369Z,2.60
2019-04-28T21:19:58.811Z,2.97
2019-04-28T21:22:28.756Z,2.77
2019-04-28T21:24:57.328Z,2.73
2019-04-28T21:27:25.788Z,4.40
2019-04-28T21:29:55.896Z,4.13
2019-04-28T21:32:25.374Z,3.87
2019-04-28T21:34:55.021Z,3.60
2019-04-28T21:37:23.521Z,2.67
2019-04-28T21:39:53.341Z,2.87
2019-04-28T21:42:28.186Z,2.90
2019-04-28T21:45:25.259Z,3.33
2019-04-28T21:47:55.011Z,2.23
2019-04-28T21:50:25.317Z,2.67
2019-04-28T21:52:54.178Z,3.43
2019-04-28T21:55:24.964Z,3.07
2019-04-28T21:57:53.738Z,2.30
2019-04-28T22:00:29.385Z,4.43
2019-04-28T22:03:16.393Z,3.17
2019-04-28T22:05:44.814Z,3.87
2019-04-28T22:08:13.258Z,2.00
2019-04-28T22:10:41.738Z,2.70
2019-04-28T22:13:10.194Z,3.33
2019-04-28T22:15:38.663Z,1.70
2019-04-28T22:18:07.863Z,4.33
2019-04-28T22:20:36.479Z,3.83
2019-04-28T22:23:18.032Z,2.80
2019-04-28T22:25:37.797Z,4.30
2019-04-28T22:28:06.295Z,2.57
2019-04-28T22:30:34.748Z,2.83
2019-04-28T22:33:03.291Z,3.27
2019-04-28T22:35:31.728Z,2.97
2019-04-28T22:38:00.265Z,3.77
2019-04-28T22:40:28.708Z,2.37
2019-04-28T22:42:57.141Z,2.30
2019-04-28T22:45:25.645Z,2.73
2019-04-28T22:47:54.075Z,3.17
2019-04-28T22:50:37.324Z,3.87
2019-04-28T22:53:05.732Z,2.40
2019-04-28T22:55:38.090Z,5.23
2019-04-28T22:58:22.381Z,2.27
2019-04-28T23:00:59.658Z,2.07
2019-04-28T23:03:37.960Z,4.77
2019-04-28T23:06:06.865Z,3.87
2019-04-28T23:08:35.287Z,2.37
2019-04-28T23:11:03.855Z,3.33
2019-04-28T23:13:32.483Z,2.40
2019-04-28T23:16:01.935Z,3.87
2019-04-28T23:18:30.354Z,2.50
2019-04-28T23:21:01.621Z,2.17
2019-04-28T23:23:32.185Z,4.50
2019-04-28T23:26:03.062Z,3.17
2019-04-28T23:28:31.020Z,8.00
2019-04-28T23:30:59.491Z,4.43
2019-04-28T23:33:27.977Z,3.57
2019-04-28T23:35:56.447Z,4.50
2019-04-28T23:38:24.886Z,3.00
2019-04-28T23:41:15.698Z,2.63
2019-04-28T23:43:44.215Z,3.30
2019-04-28T23:46:12.661Z,4.30
2019-04-28T23:48:42.234Z,3.73
2019-04-28T23:51:30.177Z,2.37
2019-04-28T23:54:04.793Z,3.30
2019-04-28T23:56:33.201Z,3.20
2019-04-28T23:59:01.681Z,2.43
